sensor_id;sensor_type;location;lat;lon;timestamp;temperature;humidity
15991;DHT22;8100;50.994;4.538;2022-07-10T00:02:19;13.10;99.90
15991;DHT22;8100;50.994;4.538;2022-07-10T00:05:07;13.10;99.90
15991;DHT22;8100;50.994;4.538;2022-07-10T00:07:55;13.10;99.90
15991;DHT22;8100;50.994;4.538;2022-07-10T00:10:43;13.10;99.90
15991;DHT22;8100;50.994;4.538;2022-07-10T00:13:30;13.10;99.90
15991;DHT22;8100;50.994;4.538;2022-07-10T00:16:17;13.10;99.90
15991;DHT22;8100;50.994;4.538;2022-07-10T00:19:06;13.00;99.90
15991;DHT22;8100;50.994;4.538;2022-07-10T00:21:53;13.00;99.90
15991;DHT22;8100;50.994;4.538;2022-07-10T00:24:40;12.90;99.90
15991;DHT22;8100;50.994;4.538;2022-07-10T00:27:27;12.90;99.90
15991;DHT22;8100;50.994;4.538;2022-07-10T00:30:15;12.90;99.90
15991;DHT22;8100;50.994;4.538;2022-07-10T00:33:02;12.80;99.90
15991;DHT22;8100;50.994;4.538;2022-07-10T00:35:51;12.70;99.90
15991;DHT22;8100;50.994;4.538;2022-07-10T00:38:38;12.70;99.90
15991;DHT22;8100;50.994;4.538;2022-07-10T00:41:25;12.70;99.90
15991;DHT22;8100;50.994;4.538;2022-07-10T00:44:12;12.60;99.90
15991;DHT22;8100;50.994;4.538;2022-07-10T00:46:59;12.60;99.90
15991;DHT22;8100;50.994;4.538;2022-07-10T00:49:47;12.60;99.90
15991;DHT22;8100;50.994;4.538;2022-07-10T00:52:36;12.50;99.90
15991;DHT22;8100;50.994;4.538;2022-07-10T00:55:24;12.50;99.90
15991;DHT22;8100;50.994;4.538;2022-07-10T00:58:12;12.40;99.90
15991;DHT22;8100;50.994;4.538;2022-07-10T01:01:00;12.40;99.90
15991;DHT22;8100;50.994;4.538;2022-07-10T01:03:48;12.40;99.90
15991;DHT22;8100;50.994;4.538;2022-07-10T01:06:35;12.40;99.90
15991;DHT22;8100;50.994;4.538;2022-07-10T01:09:24;12.30;99.90
15991;DHT22;8100;50.994;4.538;2022-07-10T01:12:12;12.30;99.90
15991;DHT22;8100;50.994;4.538;2022-07-10T01:14:59;12.20;99.90
15991;DHT22;8100;50.994;4.538;2022-07-10T01:17:47;12.30;99.90
15991;DHT22;8100;50.994;4.538;2022-07-10T01:20:35;12.20;99.90
15991;DHT22;8100;50.994;4.538;2022-07-10T01:23:24;12.10;99.90
15991;DHT22;8100;50.994;4.538;2022-07-10T01:26:11;12.10;99.90
15991;DHT22;8100;50.994;4.538;2022-07-10T01:29:00;12.10;99.90
15991;DHT22;8100;50.994;4.538;2022-07-10T01:31:48;12.10;99.90
15991;DHT22;8100;50.994;4.538;2022-07-10T01:34:36;12.10;99.90
15991;DHT22;8100;50.994;4.538;2022-07-10T01:37:23;12.10;99.90
15991;DHT22;8100;50.994;4.538;2022-07-10T01:40:12;12.10;99.90
15991;DHT22;8100;50.994;4.538;2022-07-10T01:42:59;12.00;99.90
15991;DHT22;8100;50.994;4.538;2022-07-10T01:45:46;12.00;99.90
15991;DHT22;8100;50.994;4.538;2022-07-10T01:48:34;11.90;99.90
15991;DHT22;8100;50.994;4.538;2022-07-10T01:51:22;11.90;99.90
15991;DHT22;8100;50.994;4.538;2022-07-10T01:54:10;11.90;99.90
15991;DHT22;8100;50.994;4.538;2022-07-10T01:56:58;11.90;99.90
15991;DHT22;8100;50.994;4.538;2022-07-10T01:59:45;11.90;99.90
15991;DHT22;8100;50.994;4.538;2022-07-10T02:02:33;11.90;99.90
15991;DHT22;8100;50.994;4.538;2022-07-10T02:05:20;11.80;99.90
15991;DHT22;8100;50.994;4.538;2022-07-10T02:08:06;11.90;99.90
15991;DHT22;8100;50.994;4.538;2022-07-10T02:10:53;11.80;99.90
15991;DHT22;8100;50.994;4.538;2022-07-10T02:13:42;11.80;99.90
15991;DHT22;8100;50.994;4.538;2022-07-10T02:16:29;11.80;99.90
15991;DHT22;8100;50.994;4.538;2022-07-10T02:19:16;11.70;99.90
15991;DHT22;8100;50.994;4.538;2022-07-10T02:22:04;11.70;99.90
15991;DHT22;8100;50.994;4.538;2022-07-10T02:24:51;11.70;99.90
15991;DHT22;8100;50.994;4.538;2022-07-10T02:27:39;11.70;99.90
15991;DHT22;8100;50.994;4.538;2022-07-10T02:30:27;11.60;99.90
15991;DHT22;8100;50.994;4.538;2022-07-10T02:33:14;11.60;99.90
15991;DHT22;8100;50.994;4.538;2022-07-10T02:36:01;11.60;99.90
15991;DHT22;8100;50.994;4.538;2022-07-10T02:38:49;11.60;99.90
15991;DHT22;8100;50.994;4.538;2022-07-10T02:41:36;11.60;99.90
15991;DHT22;8100;50.994;4.538;2022-07-10T02:44:23;11.60;99.90
15991;DHT22;8100;50.994;4.538;2022-07-10T02:47:12;11.50;99.90
15991;DHT22;8100;50.994;4.538;2022-07-10T02:49:59;11.50;99.90
15991;DHT22;8100;50.994;4.538;2022-07-10T02:52:46;11.50;99.90
15991;DHT22;8100;50.994;4.538;2022-07-10T02:55:34;11.50;99.90
15991;DHT22;8100;50.994;4.538;2022-07-10T02:58:21;11.40;99.90
15991;DHT22;8100;50.994;4.538;2022-07-10T03:01:09;11.40;99.90
15991;DHT22;8100;50.994;4.538;2022-07-10T03:03:57;11.40;99.90
15991;DHT22;8100;50.994;4.538;2022-07-10T03:06:45;11.40;99.90
15991;DHT22;8100;50.994;4.538;2022-07-10T03:09:32;11.40;99.90
15991;DHT22;8100;50.994;4.538;2022-07-10T03:12:19;11.30;99.90
15991;DHT22;8100;50.994;4.538;2022-07-10T03:15:07;11.30;99.90
15991;DHT22;8100;50.994;4.538;2022-07-10T03:17:55;11.30;99.90
15991;DHT22;8100;50.994;4.538;2022-07-10T03:20:43;11.20;99.90
15991;DHT22;8100;50.994;4.538;2022-07-10T03:23:30;11.20;99.90
15991;DHT22;8100;50.994;4.538;2022-07-10T03:26:18;11.20;99.90
15991;DHT22;8100;50.994;4.538;2022-07-10T03:29:05;11.20;99.90
15991;DHT22;8100;50.994;4.538;2022-07-10T03:31:52;11.20;99.90
15991;DHT22;8100;50.994;4.538;2022-07-10T03:34:39;11.30;99.90
15991;DHT22;8100;50.994;4.538;2022-07-10T03:37:28;11.20;99.90
15991;DHT22;8100;50.994;4.538;2022-07-10T03:40:15;11.20;99.90
15991;DHT22;8100;50.994;4.538;2022-07-10T03:43:02;11.20;99.90
15991;DHT22;8100;50.994;4.538;2022-07-10T03:45:50;11.20;99.90
15991;DHT22;8100;50.994;4.538;2022-07-10T03:48:37;11.20;99.90
15991;DHT22;8100;50.994;4.538;2022-07-10T03:51:24;11.20;99.90
15991;DHT22;8100;50.994;4.538;2022-07-10T03:54:13;11.20;99.90
15991;DHT22;8100;50.994;4.538;2022-07-10T03:57:00;11.20;99.90
15991;DHT22;8100;50.994;4.538;2022-07-10T04:00:06;11.30;99.90
15991;DHT22;8100;50.994;4.538;2022-07-10T04:02:56;11.30;99.90
15991;DHT22;8100;50.994;4.538;2022-07-10T04:05:44;11.30;99.90
15991;DHT22;8100;50.994;4.538;2022-07-10T04:08:31;11.20;99.90
15991;DHT22;8100;50.994;4.538;2022-07-10T04:11:20;11.30;99.90
15991;DHT22;8100;50.994;4.538;2022-07-10T04:14:07;11.30;99.90
15991;DHT22;8100;50.994;4.538;2022-07-10T04:16:54;11.40;99.90
15991;DHT22;8100;50.994;4.538;2022-07-10T04:19:41;11.50;99.90
15991;DHT22;8100;50.994;4.538;2022-07-10T04:22:29;11.40;99.90
15991;DHT22;8100;50.994;4.538;2022-07-10T04:25:16;11.50;99.90
15991;DHT22;8100;50.994;4.538;2022-07-10T04:28:05;11.60;99.90
15991;DHT22;8100;50.994;4.538;2022-07-10T04:30:52;11.70;99.90
15991;DHT22;8100;50.994;4.538;2022-07-10T04:33:39;11.80;99.90
15991;DHT22;8100;50.994;4.538;2022-07-10T04:36:26;11.80;99.90
15991;DHT22;8100;50.994;4.538;2022-07-10T04:39:14;11.90;99.90
15991;DHT22;8100;50.994;4.538;2022-07-10T04:42:01;11.90;99.90
15991;DHT22;8100;50.994;4.538;2022-07-10T04:44:50;12.00;99.90
15991;DHT22;8100;50.994;4.538;2022-07-10T04:47:38;12.00;99.90
15991;DHT22;8100;50.994;4.538;2022-07-10T04:50:25;12.00;99.90
15991;DHT22;8100;50.994;4.538;2022-07-10T04:53:12;12.00;99.90
15991;DHT22;8100;50.994;4.538;2022-07-10T04:55:59;12.00;99.90
15991;DHT22;8100;50.994;4.538;2022-07-10T04:58:48;12.00;99.90
15991;DHT22;8100;50.994;4.538;2022-07-10T05:01:36;12.00;99.90
15991;DHT22;8100;50.994;4.538;2022-07-10T05:04:24;12.10;99.90
15991;DHT22;8100;50.994;4.538;2022-07-10T05:07:11;12.10;99.90
15991;DHT22;8100;50.994;4.538;2022-07-10T05:10:00;12.10;99.90
15991;DHT22;8100;50.994;4.538;2022-07-10T05:12:48;12.10;99.90
15991;DHT22;8100;50.994;4.538;2022-07-10T05:15:35;12.10;99.90
15991;DHT22;8100;50.994;4.538;2022-07-10T05:18:24;12.10;99.90
15991;DHT22;8100;50.994;4.538;2022-07-10T05:21:11;12.20;99.90
15991;DHT22;8100;50.994;4.538;2022-07-10T05:23:58;12.20;99.90
15991;DHT22;8100;50.994;4.538;2022-07-10T05:26:45;12.20;99.90
15991;DHT22;8100;50.994;4.538;2022-07-10T05:29:33;12.30;99.90
15991;DHT22;8100;50.994;4.538;2022-07-10T05:32:20;12.30;99.90
15991;DHT22;8100;50.994;4.538;2022-07-10T05:35:09;12.30;99.90
15991;DHT22;8100;50.994;4.538;2022-07-10T05:37:57;12.50;99.90
15991;DHT22;8100;50.994;4.538;2022-07-10T05:40:44;12.60;99.90
15991;DHT22;8100;50.994;4.538;2022-07-10T05:43:31;12.90;99.90
15991;DHT22;8100;50.994;4.538;2022-07-10T05:46:18;13.10;99.90
15991;DHT22;8100;50.994;4.538;2022-07-10T05:49:05;13.40;99.90
15991;DHT22;8100;50.994;4.538;2022-07-10T05:51:54;13.70;99.90
15991;DHT22;8100;50.994;4.538;2022-07-10T05:54:41;13.90;99.90
15991;DHT22;8100;50.994;4.538;2022-07-10T05:57:29;14.20;99.90
15991;DHT22;8100;50.994;4.538;2022-07-10T06:00:17;14.20;99.90
15991;DHT22;8100;50.994;4.538;2022-07-10T06:03:04;14.30;99.90
15991;DHT22;8100;50.994;4.538;2022-07-10T06:05:51;14.50;99.90
15991;DHT22;8100;50.994;4.538;2022-07-10T06:08:40;14.50;99.90
15991;DHT22;8100;50.994;4.538;2022-07-10T06:11:27;14.50;99.90
15991;DHT22;8100;50.994;4.538;2022-07-10T06:14:14;14.50;99.90
15991;DHT22;8100;50.994;4.538;2022-07-10T06:17:02;14.50;99.90
15991;DHT22;8100;50.994;4.538;2022-07-10T06:19:49;14.60;99.90
15991;DHT22;8100;50.994;4.538;2022-07-10T06:22:36;14.70;99.90
15991;DHT22;8100;50.994;4.538;2022-07-10T06:25:27;14.70;99.90
15991;DHT22;8100;50.994;4.538;2022-07-10T06:28:14;14.90;99.90
15991;DHT22;8100;50.994;4.538;2022-07-10T06:31:02;15.00;99.90
15991;DHT22;8100;50.994;4.538;2022-07-10T06:33:49;15.10;99.90
15991;DHT22;8100;50.994;4.538;2022-07-10T06:36:36;15.40;99.90
15991;DHT22;8100;50.994;4.538;2022-07-10T06:39:23;15.50;99.90
15991;DHT22;8100;50.994;4.538;2022-07-10T06:42:12;15.80;99.90
15991;DHT22;8100;50.994;4.538;2022-07-10T06:45:00;16.10;99.90
15991;DHT22;8100;50.994;4.538;2022-07-10T06:47:47;16.10;99.90
15991;DHT22;8100;50.994;4.538;2022-07-10T06:50:44;16.00;99.90
15991;DHT22;8100;50.994;4.538;2022-07-10T06:53:31;16.00;99.90
15991;DHT22;8100;50.994;4.538;2022-07-10T06:56:22;15.90;99.90
15991;DHT22;8100;50.994;4.538;2022-07-10T06:59:12;16.00;99.90
15991;DHT22;8100;50.994;4.538;2022-07-10T07:02:00;16.00;99.90
15991;DHT22;8100;50.994;4.538;2022-07-10T07:04:47;16.00;99.90
15991;DHT22;8100;50.994;4.538;2022-07-10T07:07:35;16.10;99.90
15991;DHT22;8100;50.994;4.538;2022-07-10T07:10:22;16.40;99.90
15991;DHT22;8100;50.994;4.538;2022-07-10T07:13:09;16.60;99.90
15991;DHT22;8100;50.994;4.538;2022-07-10T07:15:58;16.60;99.90
15991;DHT22;8100;50.994;4.538;2022-07-10T07:18:46;16.90;99.90
15991;DHT22;8100;50.994;4.538;2022-07-10T07:21:38;17.30;91.50
15991;DHT22;8100;50.994;4.538;2022-07-10T07:24:43;17.40;1.00
15991;DHT22;8100;50.994;4.538;2022-07-10T07:27:31;17.30;19.40
15991;DHT22;8100;50.994;4.538;2022-07-10T07:30:19;17.30;1.00
15991;DHT22;8100;50.994;4.538;2022-07-10T07:33:08;17.20;1.00
15991;DHT22;8100;50.994;4.538;2022-07-10T07:35:55;17.60;1.00
15991;DHT22;8100;50.994;4.538;2022-07-10T07:38:42;18.00;1.00
15991;DHT22;8100;50.994;4.538;2022-07-10T07:41:30;18.30;1.00
15991;DHT22;8100;50.994;4.538;2022-07-10T07:44:17;18.60;1.00
15991;DHT22;8100;50.994;4.538;2022-07-10T07:47:04;18.70;1.00
15991;DHT22;8100;50.994;4.538;2022-07-10T07:49:53;18.80;1.00
15991;DHT22;8100;50.994;4.538;2022-07-10T07:52:41;18.80;1.00
15991;DHT22;8100;50.994;4.538;2022-07-10T07:55:29;18.50;1.00
15991;DHT22;8100;50.994;4.538;2022-07-10T07:58:17;18.50;1.00
15991;DHT22;8100;50.994;4.538;2022-07-10T08:01:04;18.80;1.00
15991;DHT22;8100;50.994;4.538;2022-07-10T08:03:51;18.90;1.00
15991;DHT22;8100;50.994;4.538;2022-07-10T08:06:41;18.80;1.00
15991;DHT22;8100;50.994;4.538;2022-07-10T08:09:28;19.10;1.00
15991;DHT22;8100;50.994;4.538;2022-07-10T08:12:16;19.40;1.00
15991;DHT22;8100;50.994;4.538;2022-07-10T08:15:04;19.60;1.00
15991;DHT22;8100;50.994;4.538;2022-07-10T08:17:52;20.00;99.90
15991;DHT22;8100;50.994;4.538;2022-07-10T08:20:40;20.10;99.90
15991;DHT22;8100;50.994;4.538;2022-07-10T08:23:30;19.80;99.90
15991;DHT22;8100;50.994;4.538;2022-07-10T08:26:17;20.00;1.00
15991;DHT22;8100;50.994;4.538;2022-07-10T08:29:04;19.60;1.00
15991;DHT22;8100;50.994;4.538;2022-07-10T08:31:51;19.40;1.00
15991;DHT22;8100;50.994;4.538;2022-07-10T08:34:38;19.20;1.00
15991;DHT22;8100;50.994;4.538;2022-07-10T08:37:26;19.00;1.00
15991;DHT22;8100;50.994;4.538;2022-07-10T08:40:15;19.00;1.00
15991;DHT22;8100;50.994;4.538;2022-07-10T08:43:05;19.40;1.00
15991;DHT22;8100;50.994;4.538;2022-07-10T08:45:53;19.90;1.00
15991;DHT22;8100;50.994;4.538;2022-07-10T08:48:42;20.40;1.00
15991;DHT22;8100;50.994;4.538;2022-07-10T08:51:36;20.80;1.00
15991;DHT22;8100;50.994;4.538;2022-07-10T08:54:25;21.50;1.00
15991;DHT22;8100;50.994;4.538;2022-07-10T08:57:15;21.60;99.90
15991;DHT22;8100;50.994;4.538;2022-07-10T09:00:05;21.70;1.00
15991;DHT22;8100;50.994;4.538;2022-07-10T09:02:53;21.80;99.90
15991;DHT22;8100;50.994;4.538;2022-07-10T09:05:41;21.70;1.00
15991;DHT22;8100;50.994;4.538;2022-07-10T09:08:28;21.40;1.00
15991;DHT22;8100;50.994;4.538;2022-07-10T09:11:18;20.90;99.90
15991;DHT22;8100;50.994;4.538;2022-07-10T09:14:08;21.10;99.90
15991;DHT22;8100;50.994;4.538;2022-07-10T09:16:57;21.00;99.90
15991;DHT22;8100;50.994;4.538;2022-07-10T09:19:44;20.90;1.00
15991;DHT22;8100;50.994;4.538;2022-07-10T09:22:35;20.90;1.00
15991;DHT22;8100;50.994;4.538;2022-07-10T09:25:33;21.10;1.00
15991;DHT22;8100;50.994;4.538;2022-07-10T09:28:21;21.00;1.00
15991;DHT22;8100;50.994;4.538;2022-07-10T09:31:10;21.00;99.90
15991;DHT22;8100;50.994;4.538;2022-07-10T09:33:57;20.90;1.00
15991;DHT22;8100;50.994;4.538;2022-07-10T09:36:45;21.00;36.10
15991;DHT22;8100;50.994;4.538;2022-07-10T09:39:32;21.10;1.00
15991;DHT22;8100;50.994;4.538;2022-07-10T09:42:28;21.50;99.90
15991;DHT22;8100;50.994;4.538;2022-07-10T09:45:17;21.80;1.00
15991;DHT22;8100;50.994;4.538;2022-07-10T09:48:06;21.90;99.90
15991;DHT22;8100;50.994;4.538;2022-07-10T09:50:54;21.90;99.90
15991;DHT22;8100;50.994;4.538;2022-07-10T09:53:42;22.10;1.00
15991;DHT22;8100;50.994;4.538;2022-07-10T09:56:33;22.20;69.20
15991;DHT22;8100;50.994;4.538;2022-07-10T09:59:26;22.60;99.90
15991;DHT22;8100;50.994;4.538;2022-07-10T10:02:17;21.80;1.00
15991;DHT22;8100;50.994;4.538;2022-07-10T10:05:08;21.40;99.90
15991;DHT22;8100;50.994;4.538;2022-07-10T10:07:55;21.20;1.00
15991;DHT22;8100;50.994;4.538;2022-07-10T10:10:45;20.80;99.90
15991;DHT22;8100;50.994;4.538;2022-07-10T10:13:34;20.80;1.00
15991;DHT22;8100;50.994;4.538;2022-07-10T10:16:22;20.80;1.00
15991;DHT22;8100;50.994;4.538;2022-07-10T10:19:10;21.20;88.20
15991;DHT22;8100;50.994;4.538;2022-07-10T10:22:18;21.50;1.00
15991;DHT22;8100;50.994;4.538;2022-07-10T10:25:06;21.80;99.90
15991;DHT22;8100;50.994;4.538;2022-07-10T10:27:54;22.00;1.00
15991;DHT22;8100;50.994;4.538;2022-07-10T10:30:44;22.20;99.90
15991;DHT22;8100;50.994;4.538;2022-07-10T10:33:42;22.10;99.90
15991;DHT22;8100;50.994;4.538;2022-07-10T10:36:44;21.50;1.00
15991;DHT22;8100;50.994;4.538;2022-07-10T10:39:51;21.80;1.00
15991;DHT22;8100;50.994;4.538;2022-07-10T10:42:39;22.20;99.90
15991;DHT22;8100;50.994;4.538;2022-07-10T10:45:31;22.10;99.90
15991;DHT22;8100;50.994;4.538;2022-07-10T10:48:20;22.00;99.90
15991;DHT22;8100;50.994;4.538;2022-07-10T10:51:08;22.10;1.00
15991;DHT22;8100;50.994;4.538;2022-07-10T10:54:04;22.40;1.00
15991;DHT22;8100;50.994;4.538;2022-07-10T10:57:14;22.50;1.00
15991;DHT22;8100;50.994;4.538;2022-07-10T11:00:03;22.80;1.00
15991;DHT22;8100;50.994;4.538;2022-07-10T11:03:18;22.00;1.00
15991;DHT22;8100;50.994;4.538;2022-07-10T11:06:06;22.00;1.00
15991;DHT22;8100;50.994;4.538;2022-07-10T11:08:58;22.40;1.00
15991;DHT22;8100;50.994;4.538;2022-07-10T11:11:58;23.00;1.00
15991;DHT22;8100;50.994;4.538;2022-07-10T11:14:46;23.90;1.00
15991;DHT22;8100;50.994;4.538;2022-07-10T11:17:35;24.10;1.00
15991;DHT22;8100;50.994;4.538;2022-07-10T11:20:23;24.30;1.00
15991;DHT22;8100;50.994;4.538;2022-07-10T11:23:48;24.30;1.00
15991;DHT22;8100;50.994;4.538;2022-07-10T11:26:49;24.30;1.00
15991;DHT22;8100;50.994;4.538;2022-07-10T11:29:38;24.50;1.00
15991;DHT22;8100;50.994;4.538;2022-07-10T11:32:28;24.40;99.90
15991;DHT22;8100;50.994;4.538;2022-07-10T11:35:15;24.00;1.00
15991;DHT22;8100;50.994;4.538;2022-07-10T11:38:03;24.00;99.90
15991;DHT22;8100;50.994;4.538;2022-07-10T11:40:50;24.00;1.00
15991;DHT22;8100;50.994;4.538;2022-07-10T11:43:48;24.20;99.90
15991;DHT22;8100;50.994;4.538;2022-07-10T11:46:36;24.50;99.90
15991;DHT22;8100;50.994;4.538;2022-07-10T11:49:25;24.50;99.90
15991;DHT22;8100;50.994;4.538;2022-07-10T11:52:13;23.80;64.00
15991;DHT22;8100;50.994;4.538;2022-07-10T11:55:13;24.20;99.90
15991;DHT22;8100;50.994;4.538;2022-07-10T11:58:01;24.20;99.90
15991;DHT22;8100;50.994;4.538;2022-07-10T12:01:00;24.50;99.90
15991;DHT22;8100;50.994;4.538;2022-07-10T12:03:57;24.40;99.90
15991;DHT22;8100;50.994;4.538;2022-07-10T12:06:47;24.80;99.90
15991;DHT22;8100;50.994;4.538;2022-07-10T12:09:34;25.00;99.90
15991;DHT22;8100;50.994;4.538;2022-07-10T12:12:24;25.50;1.00
15991;DHT22;8100;50.994;4.538;2022-07-10T12:15:30;25.70;1.00
15991;DHT22;8100;50.994;4.538;2022-07-10T12:18:19;25.10;99.90
15991;DHT22;8100;50.994;4.538;2022-07-10T12:21:07;25.00;1.00
15991;DHT22;8100;50.994;4.538;2022-07-10T12:23:56;24.70;99.90
15991;DHT22;8100;50.994;4.538;2022-07-10T12:26:44;24.90;99.90
15991;DHT22;8100;50.994;4.538;2022-07-10T12:29:31;25.10;1.00
15991;DHT22;8100;50.994;4.538;2022-07-10T12:32:21;25.70;1.00
15991;DHT22;8100;50.994;4.538;2022-07-10T12:35:09;25.30;1.00
15991;DHT22;8100;50.994;4.538;2022-07-10T12:38:00;24.90;1.00
15991;DHT22;8100;50.994;4.538;2022-07-10T12:40:49;24.60;1.00
15991;DHT22;8100;50.994;4.538;2022-07-10T12:43:38;24.50;1.00
15991;DHT22;8100;50.994;4.538;2022-07-10T12:46:25;24.60;1.00
15991;DHT22;8100;50.994;4.538;2022-07-10T12:49:12;24.50;1.00
15991;DHT22;8100;50.994;4.538;2022-07-10T12:52:00;24.10;1.00
15991;DHT22;8100;50.994;4.538;2022-07-10T12:54:47;24.10;1.00
15991;DHT22;8100;50.994;4.538;2022-07-10T12:57:49;23.90;1.00
15991;DHT22;8100;50.994;4.538;2022-07-10T13:00:43;23.90;1.00
15991;DHT22;8100;50.994;4.538;2022-07-10T13:03:31;24.30;1.00
15991;DHT22;8100;50.994;4.538;2022-07-10T13:06:28;24.60;99.90
15991;DHT22;8100;50.994;4.538;2022-07-10T13:09:21;24.40;1.00
15991;DHT22;8100;50.994;4.538;2022-07-10T13:12:08;24.10;1.00
15991;DHT22;8100;50.994;4.538;2022-07-10T13:14:57;24.10;1.00
15991;DHT22;8100;50.994;4.538;2022-07-10T13:17:44;24.30;1.00
15991;DHT22;8100;50.994;4.538;2022-07-10T13:20:32;24.80;1.00
15991;DHT22;8100;50.994;4.538;2022-07-10T13:23:19;24.60;99.90
15991;DHT22;8100;50.994;4.538;2022-07-10T13:26:09;24.30;99.90
15991;DHT22;8100;50.994;4.538;2022-07-10T13:28:56;24.80;99.90
15991;DHT22;8100;50.994;4.538;2022-07-10T13:31:46;25.40;99.90
15991;DHT22;8100;50.994;4.538;2022-07-10T13:34:34;25.60;1.00
15991;DHT22;8100;50.994;4.538;2022-07-10T13:37:22;25.90;1.00
15991;DHT22;8100;50.994;4.538;2022-07-10T13:40:10;26.60;1.00
15991;DHT22;8100;50.994;4.538;2022-07-10T13:42:59;27.20;99.90
15991;DHT22;8100;50.994;4.538;2022-07-10T13:45:46;26.90;1.00
15991;DHT22;8100;50.994;4.538;2022-07-10T13:48:35;26.90;1.00
15991;DHT22;8100;50.994;4.538;2022-07-10T13:51:22;27.30;1.00
15991;DHT22;8100;50.994;4.538;2022-07-10T13:54:09;28.40;1.00
15991;DHT22;8100;50.994;4.538;2022-07-10T13:56:57;28.70;99.90
15991;DHT22;8100;50.994;4.538;2022-07-10T13:59:44;28.40;99.90
15991;DHT22;8100;50.994;4.538;2022-07-10T14:02:32;27.20;1.00
15991;DHT22;8100;50.994;4.538;2022-07-10T14:05:21;26.70;99.90
15991;DHT22;8100;50.994;4.538;2022-07-10T14:08:08;26.10;99.90
15991;DHT22;8100;50.994;4.538;2022-07-10T14:10:55;25.90;99.90
15991;DHT22;8100;50.994;4.538;2022-07-10T14:13:43;26.50;99.90
15991;DHT22;8100;50.994;4.538;2022-07-10T14:16:30;27.00;99.90
15991;DHT22;8100;50.994;4.538;2022-07-10T14:19:17;27.60;99.90
15991;DHT22;8100;50.994;4.538;2022-07-10T14:22:06;26.80;99.90
15991;DHT22;8100;50.994;4.538;2022-07-10T14:24:56;26.30;99.90
15991;DHT22;8100;50.994;4.538;2022-07-10T14:27:44;25.80;99.90
15991;DHT22;8100;50.994;4.538;2022-07-10T14:30:31;25.20;1.00
15991;DHT22;8100;50.994;4.538;2022-07-10T14:33:18;26.10;99.90
15991;DHT22;8100;50.994;4.538;2022-07-10T14:36:06;28.90;1.00
15991;DHT22;8100;50.994;4.538;2022-07-10T14:38:55;29.60;99.90
15991;DHT22;8100;50.994;4.538;2022-07-10T14:41:43;28.50;63.60
15991;DHT22;8100;50.994;4.538;2022-07-10T14:44:30;29.10;54.50
15991;DHT22;8100;50.994;4.538;2022-07-10T14:47:17;28.20;1.00
15991;DHT22;8100;50.994;4.538;2022-07-10T14:50:05;29.00;99.90
15991;DHT22;8100;50.994;4.538;2022-07-10T14:52:52;29.00;1.00
15991;DHT22;8100;50.994;4.538;2022-07-10T14:55:41;27.40;99.90
15991;DHT22;8100;50.994;4.538;2022-07-10T14:58:28;27.60;99.90
15991;DHT22;8100;50.994;4.538;2022-07-10T15:01:16;27.20;99.90
15991;DHT22;8100;50.994;4.538;2022-07-10T15:04:04;26.50;1.00
15991;DHT22;8100;50.994;4.538;2022-07-10T15:06:51;26.10;1.00
15991;DHT22;8100;50.994;4.538;2022-07-10T15:09:38;25.50;1.00
15991;DHT22;8100;50.994;4.538;2022-07-10T15:12:27;25.30;1.00
15991;DHT22;8100;50.994;4.538;2022-07-10T15:15:17;26.50;30.40
15991;DHT22;8100;50.994;4.538;2022-07-10T15:18:05;27.10;99.90
15991;DHT22;8100;50.994;4.538;2022-07-10T15:20:52;26.50;1.00
15991;DHT22;8100;50.994;4.538;2022-07-10T15:23:40;25.90;99.90
15991;DHT22;8100;50.994;4.538;2022-07-10T15:26:27;25.70;1.00
15991;DHT22;8100;50.994;4.538;2022-07-10T15:29:15;25.80;1.00
15991;DHT22;8100;50.994;4.538;2022-07-10T15:32:04;25.50;1.00
15991;DHT22;8100;50.994;4.538;2022-07-10T15:34:51;25.50;1.00
15991;DHT22;8100;50.994;4.538;2022-07-10T15:37:39;25.50;1.00
15991;DHT22;8100;50.994;4.538;2022-07-10T15:40:26;25.20;1.00
15991;DHT22;8100;50.994;4.538;2022-07-10T15:43:14;25.00;1.00
15991;DHT22;8100;50.994;4.538;2022-07-10T15:46:04;24.90;1.00
15991;DHT22;8100;50.994;4.538;2022-07-10T15:48:51;24.50;99.90
15991;DHT22;8100;50.994;4.538;2022-07-10T15:51:39;24.40;1.00
15991;DHT22;8100;50.994;4.538;2022-07-10T15:54:26;24.50;1.00
15991;DHT22;8100;50.994;4.538;2022-07-10T15:57:13;24.40;1.00
15991;DHT22;8100;50.994;4.538;2022-07-10T16:00:01;24.50;99.90
15991;DHT22;8100;50.994;4.538;2022-07-10T16:02:49;24.50;99.90
15991;DHT22;8100;50.994;4.538;2022-07-10T16:05:37;24.80;1.00
15991;DHT22;8100;50.994;4.538;2022-07-10T16:08:25;26.00;1.00
15991;DHT22;8100;50.994;4.538;2022-07-10T16:11:12;27.90;42.80
15991;DHT22;8100;50.994;4.538;2022-07-10T16:14:00;29.40;1.00
15991;DHT22;8100;50.994;4.538;2022-07-10T16:16:48;31.30;99.90
15991;DHT22;8100;50.994;4.538;2022-07-10T16:19:37;30.90;1.00
15991;DHT22;8100;50.994;4.538;2022-07-10T16:22:24;31.50;99.90
15991;DHT22;8100;50.994;4.538;2022-07-10T16:25:12;33.30;1.00
15991;DHT22;8100;50.994;4.538;2022-07-10T16:28:17;34.30;99.90
15991;DHT22;8100;50.994;4.538;2022-07-10T16:31:04;34.60;99.90
15991;DHT22;8100;50.994;4.538;2022-07-10T16:33:52;32.70;99.90
15991;DHT22;8100;50.994;4.538;2022-07-10T16:36:41;30.40;99.90
15991;DHT22;8100;50.994;4.538;2022-07-10T16:39:28;27.20;1.00
15991;DHT22;8100;50.994;4.538;2022-07-10T16:42:16;25.50;1.00
15991;DHT22;8100;50.994;4.538;2022-07-10T16:45:03;24.90;1.00
15991;DHT22;8100;50.994;4.538;2022-07-10T16:47:51;24.60;1.00
15991;DHT22;8100;50.994;4.538;2022-07-10T16:50:40;24.40;1.00
15991;DHT22;8100;50.994;4.538;2022-07-10T16:53:29;24.10;1.00
15991;DHT22;8100;50.994;4.538;2022-07-10T16:56:17;23.90;1.00
15991;DHT22;8100;50.994;4.538;2022-07-10T16:59:04;23.80;1.00
15991;DHT22;8100;50.994;4.538;2022-07-10T17:01:51;23.50;1.00
15991;DHT22;8100;50.994;4.538;2022-07-10T17:04:39;23.40;1.00
15991;DHT22;8100;50.994;4.538;2022-07-10T17:07:26;23.40;1.00
15991;DHT22;8100;50.994;4.538;2022-07-10T17:10:15;23.50;1.00
15991;DHT22;8100;50.994;4.538;2022-07-10T17:13:02;23.50;1.00
15991;DHT22;8100;50.994;4.538;2022-07-10T17:15:49;23.30;1.00
15991;DHT22;8100;50.994;4.538;2022-07-10T17:18:37;23.30;1.00
15991;DHT22;8100;50.994;4.538;2022-07-10T17:21:24;23.30;1.00
15991;DHT22;8100;50.994;4.538;2022-07-10T17:24:11;23.30;1.00
15991;DHT22;8100;50.994;4.538;2022-07-10T17:27:00;23.10;1.00
15991;DHT22;8100;50.994;4.538;2022-07-10T17:29:47;23.00;1.00
15991;DHT22;8100;50.994;4.538;2022-07-10T17:32:34;22.90;1.00
15991;DHT22;8100;50.994;4.538;2022-07-10T17:35:22;22.80;1.00
15991;DHT22;8100;50.994;4.538;2022-07-10T17:38:09;22.90;1.00
15991;DHT22;8100;50.994;4.538;2022-07-10T17:40:56;22.90;1.00
15991;DHT22;8100;50.994;4.538;2022-07-10T17:43:45;22.90;1.00
15991;DHT22;8100;50.994;4.538;2022-07-10T17:46:32;22.70;1.00
15991;DHT22;8100;50.994;4.538;2022-07-10T17:49:19;22.70;1.00
15991;DHT22;8100;50.994;4.538;2022-07-10T17:52:06;22.70;1.00
15991;DHT22;8100;50.994;4.538;2022-07-10T17:54:54;22.50;1.00
15991;DHT22;8100;50.994;4.538;2022-07-10T17:57:41;22.50;1.00
15991;DHT22;8100;50.994;4.538;2022-07-10T18:00:31;22.50;1.00
15991;DHT22;8100;50.994;4.538;2022-07-10T18:03:18;22.40;1.00
15991;DHT22;8100;50.994;4.538;2022-07-10T18:06:05;22.30;1.00
15991;DHT22;8100;50.994;4.538;2022-07-10T18:08:53;22.40;1.00
15991;DHT22;8100;50.994;4.538;2022-07-10T18:11:40;22.40;1.00